createdAt,value
2022-10-05T00:02:41.612Z,20.70
2022-10-05T00:12:49.608Z,18.70
2022-10-05T00:22:59.071Z,17.80
2022-10-05T00:33:04.832Z,16.70
2022-10-05T00:43:31.747Z,20.30
2022-10-05T00:53:44.300Z,20.10
2022-10-05T01:04:02.093Z,18.00
2022-10-05T01:14:16.992Z,14.90
2022-10-05T01:24:42.929Z,14.50
2022-10-05T01:34:57.671Z,15.00
2022-10-05T01:45:12.972Z,15.10
2022-10-05T01:55:26.349Z,16.20
2022-10-05T02:05:40.113Z,15.30
2022-10-05T02:15:52.591Z,13.80
2022-10-05T02:25:59.431Z,13.70
2022-10-05T02:36:14.976Z,11.90
2022-10-05T02:46:34.183Z,12.40
2022-10-05T02:56:48.928Z,11.60
2022-10-05T03:07:05.900Z,14.90
2022-10-05T03:17:17.227Z,10.50
2022-10-05T03:27:34.833Z,12.60
2022-10-05T03:58:04.158Z,9.00
2022-10-05T04:08:19.469Z,8.20
2022-10-05T04:18:31.241Z,9.10
2022-10-05T04:28:55.936Z,11.30
2022-10-05T04:39:17.241Z,8.80
2022-10-05T04:49:41.624Z,9.10
2022-10-05T05:00:02.970Z,9.00
2022-10-05T05:10:33.929Z,9.70
2022-10-05T05:20:55.207Z,8.70
2022-10-05T05:31:11.356Z,7.50
2022-10-05T05:41:24.982Z,8.50
2022-10-05T05:51:36.404Z,6.90
2022-10-05T06:01:48.567Z,7.80
2022-10-05T06:11:58.352Z,8.30
2022-10-05T06:22:08.939Z,6.50
2022-10-05T06:32:26.800Z,5.60
2022-10-05T06:43:02.768Z,6.50
2022-10-05T06:53:22.147Z,5.40
2022-10-05T07:03:41.697Z,6.60
2022-10-05T07:14:04.991Z,6.10
2022-10-05T07:24:23.159Z,6.20
2022-10-05T07:34:40.995Z,6.60
2022-10-05T07:44:54.091Z,5.60
2022-10-05T07:55:07.557Z,4.60
2022-10-05T08:05:18.881Z,4.60
2022-10-05T08:15:28.941Z,4.00
2022-10-05T08:25:46.099Z,4.80
2022-10-05T08:36:00.531Z,2.90
2022-10-05T08:46:37.314Z,3.10
2022-10-05T08:56:52.011Z,3.80
2022-10-05T09:07:09.775Z,4.30
2022-10-05T09:17:39.288Z,3.80
2022-10-05T09:27:53.767Z,3.40
2022-10-05T09:38:28.292Z,2.90
2022-10-05T09:49:04.170Z,3.60
2022-10-05T09:59:37.989Z,3.60
2022-10-05T10:09:58.771Z,3.90
2022-10-05T10:20:22.610Z,3.40
2022-10-05T10:30:55.424Z,3.20
2022-10-05T10:41:33.362Z,2.10
2022-10-05T10:52:12.769Z,2.60
2022-10-05T11:02:30.951Z,2.60
2022-10-05T11:13:03.497Z,2.70
2022-10-05T11:23:29.252Z,2.50
2022-10-05T11:34:10.568Z,4.10
2022-10-05T11:44:55.137Z,2.10
2022-10-05T11:55:13.501Z,2.50
2022-10-05T12:05:24.325Z,2.90
2022-10-05T12:15:36.045Z,2.60
2022-10-05T12:25:46.900Z,1.70
2022-10-05T12:35:58.622Z,1.80
2022-10-05T12:46:17.793Z,1.60
2022-10-05T12:56:37.352Z,2.20
2022-10-05T13:06:52.133Z,1.90
2022-10-05T13:17:06.909Z,1.80
2022-10-05T13:27:19.399Z,1.50
2022-10-05T13:37:32.852Z,1.60
2022-10-05T13:47:47.401Z,1.30
2022-10-05T13:58:05.822Z,1.80
2022-10-05T14:08:18.721Z,2.70
2022-10-05T14:18:29.782Z,2.40
2022-10-05T14:28:39.308Z,3.30
2022-10-05T14:38:57.851Z,2.50
2022-10-05T14:49:22.745Z,4.10
2022-10-05T14:59:40.662Z,3.10
2022-10-05T15:10:00.821Z,4.40
2022-10-05T15:20:17.526Z,4.00
2022-10-05T15:30:23.262Z,7.10
2022-10-05T15:40:35.894Z,6.30
2022-10-05T15:50:55.495Z,4.40
2022-10-05T16:01:08.512Z,3.80
2022-10-05T16:11:22.873Z,3.20
2022-10-05T16:21:41.384Z,4.00
2022-10-05T16:31:58.799Z,4.90
2022-10-05T16:42:16.808Z,6.10
2022-10-05T16:52:25.157Z,6.60
2022-10-05T17:02:45.980Z,6.20
2022-10-05T17:13:03.667Z,5.10
2022-10-05T17:23:29.524Z,5.30
2022-10-05T17:33:56.503Z,6.80
2022-10-05T17:44:27.953Z,5.80
2022-10-05T17:55:12.573Z,6.80
2022-10-05T18:05:29.330Z,8.50
2022-10-05T18:15:48.662Z,8.20
2022-10-05T18:26:01.409Z,9.30
2022-10-05T18:36:21.715Z,7.90
2022-10-05T18:46:39.123Z,9.30
2022-10-05T18:56:50.882Z,12.40
2022-10-05T19:07:08.489Z,9.20
2022-10-05T19:17:26.315Z,9.70
2022-10-05T19:27:43.272Z,7.40
2022-10-05T19:38:03.290Z,6.70
2022-10-05T19:48:23.575Z,7.90
2022-10-05T19:58:31.620Z,8.20
2022-10-05T20:08:43.877Z,7.00
2022-10-05T20:19:09.775Z,6.10
2022-10-05T20:29:15.396Z,6.30
2022-10-05T20:39:22.983Z,5.90
2022-10-05T20:49:31.375Z,7.10
2022-10-05T20:59:38.598Z,5.80
2022-10-05T21:09:47.026Z,7.00
2022-10-05T21:19:53.632Z,6.40
2022-10-05T21:30:01.447Z,6.00
2022-10-05T21:40:08.945Z,7.60
2022-10-05T21:50:15.643Z,6.70
2022-10-05T22:00:22.343Z,7.30
2022-10-05T22:10:29.300Z,7.40
2022-10-05T22:20:36.926Z,7.10
2022-10-05T22:30:43.963Z,5.40
2022-10-05T22:40:49.963Z,7.20
2022-10-05T22:50:55.950Z,5.10
2022-10-05T23:01:05.260Z,5.10
2022-10-05T23:11:14.233Z,6.30
2022-10-05T23:21:21.490Z,6.00
2022-10-05T23:31:30.335Z,7.50
2022-10-05T23:41:35.930Z,7.40
2022-10-05T23:51:42.472Z,7.60
